Aérodrome :
LOGIN :

S'inscrire | Disclaimer

   EN    FR    IT 

 










Légende :    VFR   VFR Marginal   IFR   IFR Intensif   IFR Très Intensif
Visi : 
Plafond : 
>= 8 km
>= 3000ft
5 à 8 km
1000 à 3000 ft
1500m à 5 km
500 à 1000 ft
800 à 1500m
200 à 500 ft
< 800m
< 200 ft
Symboles :   Orages  Brouillard  Fortes neiges  Fortes précipitations  Vent > 20 kt
SIGMETs :   Divers  Orages  Givrage  Turbulence  Onde Orograph.  Cendres Volcan.






- Altitude de l'aérodrome : 1906 ft
- Code IATA : INN


LOWI - Innsbruck

DERNIER METAR :
  • 021750Z 05005KT 020V080 CAVOK 25/17 Q1019 NOSIG

METARs EXPIRÉS :
  • 021720Z 06005KT CAVOK 27/17 Q1019 NOSIG
  • 021650Z 10005KT 040V140 CAVOK 26/15 Q1019 NOSIG
  • 021620Z 07005KT 030V120 9999 FEW070 27/15 Q1019 NOSIG
  • 021550Z 06005KT 020V090 9999 FEW070 27/15 Q1019 NOSIG
  • 021520Z VRB04KT 9999 FEW070 27/15 Q1019 NOSIG

TAF TAF LOWI
Valide du 02 à 18h jusqu'au 03 à 18h UTC


021715Z 0218/0318 09007KT CAVOK TX30/0314Z TN15/0304Z
BECMG 0218/0220 VRB03KT
BECMG 0309/0311 09009KT



MET'MAP, la Météo Aéronautique d'un coup d'oeil ! - Copyright ORBIFLY Décembre 2007 - Disclaimer

ORBIFLY MET'MAP TEAM :

Programmation & Développement : Alexandra Zaïnal
Sur une idée originale de : Baudouin d'Aumeries
Soutien technique & logistique : Manuel Goepfert
Assistance : Marc-Olivier Méhu




SOURCES & CREDITS :

   NOAA